Página principal
METAR-TAF:

METAR-TAF

Aeroportos :

Kivalina, Alasca, Estados Unidos

latitude: 67-44N, longitude: 164-33W, altura: 4 m

Observação actual do tempo

O boletim foi feito há 1 hora e 12 minutos, às 10:53 UTC
Vento 7 kt de noroeste
Temperatura 3°C
Humidade 93%
Pressão 1019 hPa
Visibilidade: 16.1 km
Céu limpo

METAR: PAVL 201053Z AUTO 31007KT 10SM CLR 03/02 A3008 RMK AO2 SLP184 T00280017 TSNO $

Hora: 04:05 (12:05 UTC)


TAF: em falta

Observações e previsões do tempo de mais de 4000 aeroportos (mensagens METAR e TAF).

As estações disponíveis são os pontos amarelos e vermelhos sobre o mapa.

Mova o rato sobre o mapa para ver o nome da estação.

Depois clique no ponto para visualizar as observações e previsões meteorológicas.

Para alterar o mapa : clique nos botões verdes com uma cruz preta para aumentar o zoom; no botão verde com uma pitada de zoom; ou nas setas verdes para mapas adjacentes.


METAR-TAF: